createdAt,value
2018-02-10T00:00:43.940Z,81.20
2018-02-10T00:03:10.380Z,74.70
2018-02-10T00:05:36.742Z,71.32
2018-02-10T00:08:03.130Z,77.40
2018-02-10T00:10:29.502Z,74.33
2018-02-10T00:12:55.880Z,72.25
2018-02-10T00:15:22.982Z,72.70
2018-02-10T00:17:49.338Z,60.55
2018-02-10T00:20:16.460Z,76.53
2018-02-10T00:22:47.838Z,66.20
2018-02-10T00:25:14.210Z,76.80
2018-02-10T00:27:40.582Z,82.00
2018-02-10T00:30:06.953Z,73.15
2018-02-10T00:32:34.064Z,65.10
2018-02-10T00:35:00.414Z,65.78
2018-02-10T00:37:27.515Z,64.35
2018-02-10T00:39:53.890Z,71.85
2018-02-10T00:42:20.253Z,66.00
2018-02-10T00:44:47.358Z,66.17
2018-02-10T00:47:13.713Z,71.13
2018-02-10T00:49:40.851Z,66.77
2018-02-10T00:52:07.234Z,66.87
2018-02-10T00:54:33.613Z,75.57
2018-02-10T00:57:00.016Z,71.93
2018-02-10T00:59:26.434Z,65.22
2018-02-10T01:01:52.838Z,71.18
2018-02-10T01:04:19.229Z,71.65
2018-02-10T01:06:45.575Z,82.90
2018-02-10T01:09:11.965Z,78.90
2018-02-10T01:11:39.062Z,75.17
2018-02-10T01:14:06.186Z,74.07
2018-02-10T01:16:32.549Z,78.70
2018-02-10T01:18:59.650Z,73.43
2018-02-10T01:21:26.056Z,75.03
2018-02-10T01:23:52.430Z,72.03
2018-02-10T01:26:18.785Z,76.87
2018-02-10T01:28:45.138Z,76.35
2018-02-10T01:31:11.510Z,70.20
2018-02-10T01:33:37.862Z,65.23
2018-02-10T01:36:04.242Z,71.18
2018-02-10T01:38:30.605Z,73.07
2018-02-10T01:40:56.963Z,78.37
2018-02-10T01:43:23.334Z,70.70
2018-02-10T01:45:49.703Z,64.78
2018-02-10T01:48:16.084Z,71.45
2018-02-10T01:50:43.191Z,69.30
2018-02-10T01:53:09.574Z,71.82
2018-02-10T01:55:35.925Z,67.15
2018-02-10T01:58:02.282Z,70.18
2018-02-10T02:00:28.653Z,67.22
2018-02-10T02:02:55.832Z,73.72
2018-02-10T02:05:22.221Z,70.53
2018-02-10T02:07:49.314Z,64.53
2018-02-10T02:10:15.674Z,71.90
2018-02-10T02:12:42.050Z,80.95
2018-02-10T02:15:08.448Z,75.07
2018-02-10T02:17:34.864Z,71.35
2018-02-10T02:20:01.221Z,60.78
2018-02-10T02:22:27.570Z,69.35
2018-02-10T02:24:54.687Z,65.95
2018-02-10T02:27:22.528Z,57.38
2018-02-10T02:29:48.896Z,65.10
2018-02-10T02:32:15.259Z,57.50
2018-02-10T02:34:42.369Z,73.65
2018-02-10T02:37:08.732Z,66.00
2018-02-10T02:39:35.838Z,64.28
2018-02-10T02:42:02.195Z,60.95
2018-02-10T02:44:28.575Z,61.80
2018-02-10T02:46:54.950Z,69.95
2018-02-10T02:49:21.318Z,70.32
2018-02-10T02:51:47.675Z,81.47
2018-02-10T02:54:14.048Z,75.72
2018-02-10T02:56:41.152Z,77.70
2018-02-10T02:59:07.501Z,78.53
2018-02-10T03:01:33.852Z,69.75
2018-02-10T03:04:00.216Z,64.37
2018-02-10T03:06:26.745Z,74.50
2018-02-10T03:08:53.115Z,81.55
2018-02-10T03:11:19.508Z,90.80
2018-02-10T03:13:46.643Z,85.57
2018-02-10T03:16:13.765Z,86.53
2018-02-10T03:18:40.115Z,98.10
2018-02-10T03:21:06.476Z,80.80
2018-02-10T03:23:32.840Z,89.90
2018-02-10T03:25:59.293Z,85.10
2018-02-10T03:28:25.686Z,82.95
2018-02-10T03:30:52.044Z,94.70
2018-02-10T03:33:18.411Z,100.75
2018-02-10T03:35:45.515Z,84.22
2018-02-10T03:38:11.916Z,75.10
2018-02-10T03:40:38.310Z,105.80
2018-02-10T03:43:04.718Z,82.30
2018-02-10T03:45:31.079Z,79.47
2018-02-10T03:47:57.450Z,76.12
2018-02-10T03:50:23.821Z,67.60
2018-02-10T03:52:50.179Z,68.20
2018-02-10T03:55:17.290Z,69.90
2018-02-10T03:57:43.654Z,74.22
2018-02-10T04:00:10.772Z,86.28
2018-02-10T04:02:37.130Z,72.55
2018-02-10T04:05:03.526Z,73.03
2018-02-10T04:07:29.895Z,72.28
2018-02-10T04:09:56.328Z,74.72
2018-02-10T04:12:23.438Z,72.60
2018-02-10T04:14:49.814Z,71.15
2018-02-10T04:17:16.192Z,92.40
2018-02-10T04:19:42.575Z,82.72
2018-02-10T04:22:09.696Z,75.50
2018-02-10T04:24:36.071Z,76.05
2018-02-10T04:27:03.215Z,78.70
2018-02-10T04:29:30.317Z,90.43
2018-02-10T04:31:56.678Z,73.72
2018-02-10T04:34:23.051Z,88.05
2018-02-10T04:36:49.422Z,72.40
2018-02-10T04:39:15.803Z,80.57
2018-02-10T04:41:42.162Z,75.85
2018-02-10T04:44:08.513Z,77.82
2018-02-10T04:46:34.879Z,76.07
2018-02-10T04:49:01.999Z,89.13
2018-02-10T04:51:28.372Z,71.45
2018-02-10T04:53:55.076Z,81.50
2018-02-10T04:56:21.446Z,76.72
2018-02-10T04:58:48.554Z,91.78
2018-02-10T05:01:14.906Z,89.57
2018-02-10T05:03:42.026Z,70.03
2018-02-10T05:06:08.390Z,76.75
2018-02-10T05:08:35.539Z,74.05
2018-02-10T05:11:02.722Z,82.65
2018-02-10T05:13:29.089Z,76.18
2018-02-10T05:15:55.453Z,74.43
2018-02-10T05:18:22.746Z,82.40
2018-02-10T05:20:49.142Z,75.10
2018-02-10T05:23:16.290Z,83.07
2018-02-10T05:25:43.453Z,75.68
2018-02-10T05:28:09.833Z,86.22
2018-02-10T05:30:36.208Z,92.75
2018-02-10T05:33:03.341Z,82.32
2018-02-10T05:35:29.706Z,79.60
2018-02-10T05:37:56.086Z,83.23
2018-02-10T05:40:22.442Z,85.47
2018-02-10T05:42:49.547Z,88.95
2018-02-10T05:45:15.928Z,95.90
2018-02-10T05:47:42.324Z,84.90
2018-02-10T05:50:08.702Z,86.28
2018-02-10T05:52:35.106Z,79.75
2018-02-10T05:55:02.218Z,77.57
2018-02-10T05:57:28.593Z,77.47
2018-02-10T05:59:55.698Z,72.75
2018-02-10T06:02:22.054Z,81.82
2018-02-10T06:04:48.427Z,88.35
2018-02-10T06:07:14.807Z,88.62
2018-02-10T06:09:41.184Z,83.53
2018-02-10T06:12:07.585Z,84.20
2018-02-10T06:14:33.953Z,78.70
2018-02-10T06:17:00.322Z,88.03
2018-02-10T06:19:26.732Z,76.93
2018-02-10T06:21:53.139Z,77.85
2018-02-10T06:24:20.263Z,88.00
2018-02-10T06:26:46.631Z,70.53
2018-02-10T06:29:12.987Z,83.65
2018-02-10T06:31:39.353Z,80.53
2018-02-10T06:34:05.721Z,79.47
2018-02-10T06:36:32.094Z,86.57
2018-02-10T06:38:58.470Z,89.07
2018-02-10T06:41:25.617Z,85.62
2018-02-10T06:43:51.951Z,90.05
2018-02-10T06:46:19.074Z,83.20
2018-02-10T06:48:46.222Z,83.32
2018-02-10T06:51:14.080Z,92.37
2018-02-10T06:53:40.446Z,89.97
2018-02-10T06:56:07.563Z,94.72
2018-02-10T06:58:33.942Z,95.15
2018-02-10T07:01:00.298Z,85.60
2018-02-10T07:03:26.673Z,84.95
2018-02-10T07:05:53.065Z,97.25
2018-02-10T07:08:19.436Z,79.90
2018-02-10T07:10:45.845Z,94.53
2018-02-10T07:13:12.201Z,93.80
2018-02-10T07:15:39.306Z,89.72
2018-02-10T07:18:05.664Z,95.50
2018-02-10T07:20:32.052Z,95.75
2018-02-10T07:22:58.417Z,92.25
2018-02-10T07:25:24.781Z,96.87
2018-02-10T07:27:51.141Z,88.47
2018-02-10T07:30:17.531Z,94.17
2018-02-10T07:32:43.899Z,91.40
2018-02-10T07:35:10.997Z,109.53
2018-02-10T07:37:37.421Z,93.93
2018-02-10T07:40:03.846Z,86.50
2018-02-10T07:42:30.218Z,116.93
2018-02-10T07:44:57.325Z,102.43
2018-02-10T07:47:23.698Z,99.45
2018-02-10T07:49:50.061Z,103.93
2018-02-10T07:52:16.453Z,109.93
2018-02-10T07:54:43.560Z,91.30
2018-02-10T07:57:09.906Z,89.97
2018-02-10T07:59:36.317Z,108.80
2018-02-10T08:02:02.700Z,95.00
2018-02-10T08:04:29.810Z,107.63
2018-02-10T08:06:56.206Z,100.10
2018-02-10T08:09:23.309Z,88.60
2018-02-10T08:11:49.669Z,94.50
2018-02-10T08:14:16.766Z,100.93
2018-02-10T08:16:43.187Z,87.30
2018-02-10T08:19:09.571Z,94.90
2018-02-10T08:21:35.940Z,96.53
2018-02-10T08:24:02.374Z,98.97
2018-02-10T08:26:28.743Z,102.33
2018-02-10T08:28:55.118Z,92.73
2018-02-10T08:31:22.355Z,83.80
2018-02-10T08:33:49.478Z,98.77
2018-02-10T08:36:15.826Z,91.70
2018-02-10T08:38:42.963Z,97.33
2018-02-10T08:41:09.335Z,85.57
2018-02-10T08:43:36.454Z,95.97
2018-02-10T08:46:03.094Z,92.10
2018-02-10T08:48:29.457Z,89.70
2018-02-10T08:50:56.554Z,79.03
2018-02-10T08:53:22.941Z,91.33
2018-02-10T08:55:49.338Z,100.73
2018-02-10T08:58:15.696Z,101.07
2018-02-10T09:00:42.797Z,90.80
2018-02-10T09:03:09.187Z,94.03
2018-02-10T09:05:36.582Z,101.60
2018-02-10T09:08:02.934Z,108.47
2018-02-10T09:10:29.298Z,115.07
2018-02-10T09:12:56.396Z,112.17
2018-02-10T09:15:22.783Z,119.03
2018-02-10T09:17:49.154Z,99.03
2018-02-10T09:20:15.486Z,94.50
2018-02-10T09:22:41.844Z,95.93
2018-02-10T09:25:08.206Z,101.77
2018-02-10T09:27:34.586Z,120.30
2018-02-10T09:30:00.941Z,122.10
2018-02-10T09:32:27.304Z,139.73
2018-02-10T09:34:54.511Z,160.60
2018-02-10T09:37:20.890Z,95.70
2018-02-10T09:39:47.281Z,97.83
2018-02-10T09:42:13.626Z,188.53
2018-02-10T09:44:40.722Z,107.10
2018-02-10T09:47:07.103Z,175.00
2018-02-10T09:49:34.394Z,167.10
2018-02-10T09:52:00.759Z,252.80
2018-02-10T09:54:27.145Z,229.67
2018-02-10T09:56:53.555Z,203.73
2018-02-10T09:59:20.662Z,159.47
2018-02-10T10:01:47.062Z,155.37
2018-02-10T10:04:14.141Z,231.77
2018-02-10T10:06:40.523Z,98.87
2018-02-10T10:09:06.901Z,100.77
2018-02-10T10:11:33.272Z,321.63
2018-02-10T10:14:00.370Z,249.37
2018-02-10T10:16:26.725Z,152.23
2018-02-10T10:18:53.087Z,210.77
2018-02-10T10:21:20.178Z,109.37
2018-02-10T10:23:46.558Z,149.33
2018-02-10T10:26:12.919Z,116.17
2018-02-10T10:28:39.351Z,122.73
2018-02-10T10:31:05.714Z,101.20
2018-02-10T10:33:32.071Z,109.50
2018-02-10T10:35:58.442Z,110.30
2018-02-10T10:38:24.828Z,97.40
2018-02-10T10:40:51.194Z,107.93
2018-02-10T10:43:18.292Z,109.00
2018-02-10T10:45:44.650Z,96.43
2018-02-10T10:48:11.015Z,104.47
2018-02-10T10:50:37.433Z,117.83
2018-02-10T10:53:04.561Z,102.97
2018-02-10T10:55:30.910Z,111.30
2018-02-10T10:57:58.138Z,116.33
2018-02-10T11:00:24.535Z,108.80
2018-02-10T11:02:50.910Z,111.30
2018-02-10T11:05:17.331Z,106.60
2018-02-10T11:07:43.706Z,115.67
2018-02-10T11:10:10.798Z,97.80
2018-02-10T11:12:37.158Z,108.87
2018-02-10T11:15:03.518Z,113.33
2018-02-10T11:17:29.880Z,114.03
2018-02-10T11:19:56.219Z,105.00
2018-02-10T11:22:23.331Z,100.57
2018-02-10T11:24:49.698Z,98.80
2018-02-10T11:27:16.079Z,103.80
2018-02-10T11:29:43.165Z,106.77
2018-02-10T11:32:09.552Z,100.47
2018-02-10T11:34:35.908Z,109.23
2018-02-10T11:37:02.274Z,100.60
2018-02-10T11:39:28.639Z,109.10
2018-02-10T11:41:55.795Z,113.40
2018-02-10T11:44:22.161Z,108.33
2018-02-10T11:46:48.579Z,107.13
2018-02-10T11:49:14.934Z,98.80
2018-02-10T11:51:41.287Z,115.23
2018-02-10T11:54:07.638Z,108.37
2018-02-10T11:56:34.036Z,123.23
2018-02-10T11:59:00.382Z,83.77
2018-02-10T12:01:26.772Z,88.33
2018-02-10T12:03:53.167Z,71.43
2018-02-10T12:06:19.609Z,66.43
2018-02-10T12:08:45.957Z,76.00
2018-02-10T12:11:13.133Z,66.37
2018-02-10T12:13:39.512Z,64.00
2018-02-10T12:16:05.881Z,72.13
2018-02-10T12:18:32.229Z,59.50
2018-02-10T12:20:58.591Z,69.87
2018-02-10T12:23:24.957Z,64.00
2018-02-10T12:25:52.068Z,62.67
2018-02-10T12:28:18.438Z,62.63
2018-02-10T12:30:45.542Z,60.63
2018-02-10T12:33:11.904Z,61.93
2018-02-10T12:35:38.323Z,66.00
2018-02-10T12:38:06.178Z,64.93
2018-02-10T12:40:32.532Z,74.47
2018-02-10T12:43:00.377Z,61.30
2018-02-10T12:45:26.756Z,58.33
2018-02-10T12:48:14.049Z,51.33
2018-02-10T12:50:40.451Z,66.93
2018-02-10T12:53:06.806Z,51.70
2018-02-10T12:55:33.915Z,59.53
2018-02-10T12:58:01.028Z,52.63
2018-02-10T13:00:28.143Z,56.93
2018-02-10T13:02:54.518Z,55.73
2018-02-10T13:05:20.905Z,60.67
2018-02-10T13:07:47.282Z,52.73
2018-02-10T13:10:13.682Z,64.00
2018-02-10T13:12:40.044Z,59.43
2018-02-10T13:15:07.227Z,75.77
2018-02-10T13:17:33.594Z,69.10
2018-02-10T13:20:00.824Z,55.40
2018-02-10T13:22:27.192Z,64.67
2018-02-10T13:24:54.286Z,62.07
2018-02-10T13:27:20.649Z,49.53
2018-02-10T13:29:47.047Z,57.17
2018-02-10T13:32:13.422Z,61.60
2018-02-10T13:34:39.818Z,72.13
2018-02-10T13:37:06.182Z,65.03
2018-02-10T13:39:32.548Z,64.67
2018-02-10T13:41:59.654Z,77.03
2018-02-10T13:44:26.039Z,65.77
2018-02-10T13:46:52.382Z,69.27
2018-02-10T13:49:18.765Z,59.73
2018-02-10T13:51:45.876Z,63.70
2018-02-10T13:54:12.238Z,60.03
2018-02-10T13:56:38.672Z,65.07
2018-02-10T13:59:05.039Z,72.53
2018-02-10T14:01:31.395Z,61.93
2018-02-10T14:03:57.768Z,76.07
2018-02-10T14:06:24.127Z,74.03
2018-02-10T14:08:50.494Z,64.43
2018-02-10T14:11:16.881Z,61.93
2018-02-10T14:13:43.973Z,70.37
2018-02-10T14:16:10.459Z,69.13
2018-02-10T14:18:37.590Z,60.57
2018-02-10T14:21:04.706Z,67.53
2018-02-10T14:23:31.110Z,64.07
2018-02-10T14:25:57.503Z,71.73
2018-02-10T14:28:23.875Z,62.87
2018-02-10T14:30:50.238Z,58.23
2018-02-10T14:33:16.687Z,61.90
2018-02-10T14:35:43.097Z,67.73
2018-02-10T14:38:09.486Z,72.10
2018-02-10T14:40:36.591Z,67.63
2018-02-10T14:43:03.040Z,63.37
2018-02-10T14:45:29.439Z,77.27
2018-02-10T14:47:55.835Z,68.53
2018-02-10T14:50:22.198Z,69.43
2018-02-10T14:52:48.599Z,59.10
2018-02-10T14:55:15.703Z,66.93
2018-02-10T14:57:42.090Z,62.87
2018-02-10T15:00:08.464Z,63.80
2018-02-10T15:02:34.857Z,68.23
2018-02-10T15:05:01.227Z,59.53
2018-02-10T15:07:27.573Z,69.97
2018-02-10T15:09:53.917Z,66.17
2018-02-10T15:12:21.020Z,62.40
2018-02-10T15:14:47.397Z,73.57
2018-02-10T15:17:14.505Z,64.63
2018-02-10T15:19:40.876Z,66.60
2018-02-10T15:22:07.973Z,63.00
2018-02-10T15:24:34.400Z,68.93
2018-02-10T15:27:01.634Z,79.30
2018-02-10T15:29:40.211Z,77.27
2018-02-10T15:32:18.878Z,76.03
2018-02-10T15:34:52.295Z,75.30
2018-02-10T15:37:18.704Z,70.80
2018-02-10T15:39:45.068Z,86.60
2018-02-10T15:42:11.422Z,79.17
2018-02-10T15:44:39.329Z,79.07
2018-02-10T15:47:05.699Z,74.73
2018-02-10T15:49:32.062Z,78.90
2018-02-10T15:51:58.453Z,131.47
2018-02-10T15:54:24.898Z,102.70
2018-02-10T15:56:52.764Z,96.37
2018-02-10T15:59:19.185Z,93.87
2018-02-10T16:01:45.528Z,82.13
2018-02-10T16:04:11.894Z,84.77
2018-02-10T16:06:39.074Z,79.13
2018-02-10T16:09:05.880Z,84.40
2018-02-10T16:11:33.009Z,89.87
2018-02-10T16:13:59.468Z,76.70
2018-02-10T16:16:26.579Z,78.37
2018-02-10T16:18:52.955Z,91.63
2018-02-10T16:21:20.128Z,76.70
2018-02-10T16:23:46.486Z,97.53
2018-02-10T16:26:12.847Z,95.97
2018-02-10T16:28:40.279Z,94.37
2018-02-10T16:31:06.675Z,91.20
2018-02-10T16:33:33.035Z,77.87
2018-02-10T16:35:59.402Z,81.53
2018-02-10T16:38:25.772Z,84.70
2018-02-10T16:40:52.162Z,81.97
2018-02-10T16:43:18.528Z,85.67
2018-02-10T16:45:45.638Z,89.87
2018-02-10T16:48:12.005Z,81.10
2018-02-10T16:50:38.499Z,79.93
2018-02-10T16:53:04.892Z,90.63
2018-02-10T16:55:31.272Z,80.23
2018-02-10T16:57:58.383Z,172.57
2018-02-10T17:21:20.526Z,98.47
2018-02-10T17:23:47.159Z,92.77
2018-02-10T17:26:14.288Z,101.93
2018-02-10T17:28:42.136Z,105.17
2018-02-10T17:31:08.520Z,86.63
2018-02-10T17:33:34.887Z,102.77
2018-02-10T17:36:01.253Z,105.43
2018-02-10T17:38:28.381Z,99.80
2018-02-10T17:40:56.228Z,98.73
2018-02-10T17:43:22.592Z,112.00
2018-02-10T17:45:48.943Z,98.87
2018-02-10T17:48:15.314Z,95.90
2018-02-10T17:50:41.695Z,98.13
2018-02-10T17:53:09.854Z,97.13
2018-02-10T17:55:37.695Z,112.83
2018-02-10T17:58:04.064Z,106.77
2018-02-10T18:00:30.460Z,96.03
2018-02-10T18:02:56.821Z,94.77
2018-02-10T18:05:24.683Z,104.37
2018-02-10T18:07:51.843Z,113.90
2018-02-10T18:10:18.965Z,111.53
2018-02-10T18:12:45.363Z,123.73
2018-02-10T18:15:11.722Z,213.37
2018-02-10T18:17:38.095Z,260.33
2018-02-10T18:20:05.212Z,121.27
2018-02-10T18:22:31.638Z,115.73
2018-02-10T18:24:58.031Z,96.90
2018-02-10T18:27:24.555Z,100.43
2018-02-10T18:29:50.955Z,90.53
2018-02-10T18:32:17.322Z,96.40
2018-02-10T18:34:43.687Z,88.40
2018-02-10T18:37:10.055Z,93.30
2018-02-10T18:39:36.430Z,89.63
2018-02-10T18:42:02.846Z,134.07
2018-02-10T18:44:29.201Z,110.50
2018-02-10T18:46:55.566Z,107.43
2018-02-10T18:49:21.915Z,114.57
2018-02-10T18:51:49.023Z,99.10
2018-02-10T18:54:15.395Z,99.97
2018-02-10T18:56:42.502Z,99.30
2018-02-10T18:59:08.882Z,102.80
2018-02-10T19:01:36.729Z,104.97
2018-02-10T19:04:03.834Z,104.90
2018-02-10T19:06:30.968Z,120.63
2018-02-10T19:08:57.322Z,100.40
2018-02-10T19:11:23.693Z,123.13
2018-02-10T19:13:50.033Z,106.27
2018-02-10T19:16:17.870Z,98.40
2018-02-10T19:18:44.241Z,109.10
2018-02-10T19:21:11.363Z,99.20
2018-02-10T19:23:37.728Z,92.00
2018-02-10T19:26:04.830Z,87.47
2018-02-10T19:28:31.273Z,97.33
2018-02-10T19:30:57.642Z,93.33
2018-02-10T19:33:24.015Z,101.30
2018-02-10T19:35:50.408Z,85.13
2018-02-10T19:38:17.829Z,87.53
2018-02-10T19:40:44.281Z,92.50
2018-02-10T19:43:11.390Z,81.93
2018-02-10T19:45:37.780Z,94.03
2018-02-10T19:48:04.229Z,88.20
2018-02-10T19:50:30.627Z,85.50
2018-02-10T19:52:57.730Z,91.30
2018-02-10T19:55:24.090Z,95.20
2018-02-10T19:57:50.456Z,87.83
2018-02-10T20:00:17.708Z,93.47
2018-02-10T20:02:44.099Z,91.90
2018-02-10T20:05:10.470Z,97.87
2018-02-10T20:07:37.563Z,83.50
2018-02-10T20:10:03.951Z,90.67
2018-02-10T20:12:30.367Z,98.87
2018-02-10T20:14:57.488Z,80.67
2018-02-10T20:17:23.863Z,90.07
2018-02-10T20:19:50.224Z,83.20
2018-02-10T20:22:16.596Z,99.10
2018-02-10T20:24:42.957Z,82.80
2018-02-10T20:27:09.336Z,89.00
2018-02-10T20:29:35.701Z,97.73
2018-02-10T20:32:15.997Z,90.90
2018-02-10T20:34:42.406Z,117.13
2018-02-10T20:37:22.769Z,86.23
2018-02-10T20:39:49.867Z,88.27
2018-02-10T20:42:17.406Z,101.83
2018-02-10T20:44:43.776Z,94.77
2018-02-10T20:47:10.156Z,99.17
2018-02-10T20:49:36.544Z,92.30
2018-02-10T20:52:03.765Z,98.00
2018-02-10T20:54:30.155Z,89.87
2018-02-10T20:56:57.267Z,90.03
2018-02-10T20:59:23.698Z,97.93
2018-02-10T21:01:50.725Z,96.80
2018-02-10T21:04:17.113Z,91.47
2018-02-10T21:06:44.258Z,90.80
2018-02-10T21:09:10.630Z,92.60
2018-02-10T21:11:37.006Z,113.03
2018-02-10T21:14:03.389Z,113.27
2018-02-10T21:16:29.741Z,86.50
2018-02-10T21:18:56.127Z,97.70
2018-02-10T21:21:22.498Z,98.67
2018-02-10T21:23:48.863Z,95.83
2018-02-10T21:26:15.969Z,82.90
2018-02-10T21:28:42.338Z,155.27
2018-02-10T21:31:09.447Z,99.40
2018-02-10T21:33:35.802Z,205.37
2018-02-10T21:36:02.184Z,103.77
2018-02-10T21:38:28.548Z,172.03
2018-02-10T21:40:54.926Z,106.40
2018-02-10T21:43:22.028Z,201.10
2018-02-10T21:45:48.382Z,131.17
2018-02-10T21:48:14.747Z,198.20
2018-02-10T21:50:41.935Z,165.00
2018-02-10T21:53:08.381Z,115.53
2018-02-10T21:55:34.759Z,95.17
2018-02-10T21:58:01.145Z,79.13
2018-02-10T22:00:27.524Z,92.70
2018-02-10T22:02:54.629Z,87.97
2018-02-10T22:05:21.005Z,125.43
2018-02-10T22:07:48.090Z,96.63
2018-02-10T22:10:14.465Z,87.23
2018-02-10T22:12:41.574Z,90.73
2018-02-10T22:15:07.943Z,73.37
2018-02-10T22:17:34.306Z,76.70
2018-02-10T22:20:00.659Z,73.93
2018-02-10T22:22:27.061Z,73.87
2018-02-10T22:24:53.433Z,84.77
2018-02-10T22:27:19.798Z,78.77
2018-02-10T22:29:46.153Z,80.30
2018-02-10T22:32:13.258Z,79.13
2018-02-10T22:34:39.625Z,76.80
2018-02-10T22:37:06.744Z,82.53
2018-02-10T22:39:33.108Z,77.33
2018-02-10T22:42:00.207Z,87.20
2018-02-10T22:44:26.563Z,64.07
2018-02-10T22:46:52.925Z,77.27
2018-02-10T22:49:19.289Z,74.93
2018-02-10T22:51:45.660Z,73.03
2018-02-10T22:54:12.022Z,69.33
2018-02-10T22:56:38.411Z,72.57
2018-02-10T22:59:04.828Z,73.07
2018-02-10T23:01:31.186Z,71.53
2018-02-10T23:03:57.544Z,94.17
2018-02-10T23:06:24.663Z,82.80
2018-02-10T23:08:51.019Z,75.77
2018-02-10T23:11:18.116Z,72.50
2018-02-10T23:13:44.840Z,74.87
2018-02-10T23:16:11.245Z,67.27
2018-02-10T23:18:37.593Z,78.50
2018-02-10T23:21:03.992Z,61.77
2018-02-10T23:23:31.083Z,67.73
2018-02-10T23:25:57.466Z,78.03
2018-02-10T23:28:23.817Z,67.60
2018-02-10T23:30:50.911Z,75.37
2018-02-10T23:33:17.273Z,63.63
2018-02-10T23:35:43.674Z,64.03
2018-02-10T23:38:10.039Z,70.20
2018-02-10T23:40:36.422Z,70.30
2018-02-10T23:43:02.827Z,63.20
2018-02-10T23:45:29.190Z,66.33
2018-02-10T23:47:55.603Z,59.60
2018-02-10T23:50:22.019Z,53.27
2018-02-10T23:52:49.116Z,60.13
2018-02-10T23:55:15.481Z,61.57
2018-02-10T23:57:42.599Z,59.63
